首页
METAR-TAF:

METAR-TAF

机场 :

Mankato, 明尼蘇達州, 美国

纬度: 44-13N, 经度: 093-55W, 海拔: 311米

当前天气观测

该预报发布于8分钟前的05:56 UTC
风速7节,风向
温度 9°C
湿度 81%
气压 1009 hPa
能見度: 16.1公里
天空无云

METAR: KMKT 250556Z AUTO 18007KT 10SM CLR 09/06 A2980 RMK AO2 SLP095 T00890061 10139 20089 402110089 50003

时间: 01:04 (06:04 UTC)

预报

该预报发布于25分钟前的05:39 UTC
预报有效从25日的 06点(UTC)到 26日的 06点(UTC)
风速6节,风向西南
能見度: 10公里
天空无云
从 25日的 1600点(UTC)
风速15节,风向南转西南,有时为23节阵风
能見度: 10公里
少量云层高于20000英尺
从 25日的 2200点(UTC)
风速11节,风向南转西南
能見度: 10公里
阴天层高于17000英尺
从 26日的 0000点(UTC)
风速6节,风向东南
能見度: 10公里
阴天层高于12000英尺

TAF: KMKT 250539Z 2506/2606 22006KT P6SM SKC FM251600 20015G23KT P6SM FEW200 FM252200 21011KT P6SM OVC170 FM260000 14006KT P6SM OVC120

超过4000个机场的气象观测和天气预报(METAR&TAF报告)。

可查询的气象台以黄色和红色小点在地图上表示。

将鼠标移到小点上方,可查看气象台名称。

然后点击查看天气观测和预报。

如需切换地图:点击带黑十字的绿色按钮放大地图;点击带横线的绿色按钮缩小地图;或者点击绿色箭头查看邻近地区的地图。


METAR-TAF: